sensor_id;sensor_type;location;lat;lon;timestamp;P1;durP1;ratioP1;P2;durP2;ratioP2
3949;SDS011;53057;50.988;6.314;2023-03-14T00:02:11;12.93;;;2.10;;
3949;SDS011;53057;50.988;6.314;2023-03-14T00:04:38;5.43;;;1.63;;
3949;SDS011;53057;50.988;6.314;2023-03-14T00:07:04;9.70;;;3.70;;
3949;SDS011;53057;50.988;6.314;2023-03-14T00:09:31;10.37;;;3.33;;
3949;SDS011;53057;50.988;6.314;2023-03-14T00:11:57;9.27;;;1.63;;
3949;SDS011;53057;50.988;6.314;2023-03-14T00:14:24;3.13;;;1.43;;
3949;SDS011;53057;50.988;6.314;2023-03-14T00:16:51;4.97;;;1.20;;
3949;SDS011;53057;50.988;6.314;2023-03-14T00:19:17;8.97;;;2.03;;
3949;SDS011;53057;50.988;6.314;2023-03-14T00:21:44;3.10;;;1.17;;
3949;SDS011;53057;50.988;6.314;2023-03-14T00:24:10;5.70;;;1.50;;
3949;SDS011;53057;50.988;6.314;2023-03-14T00:26:37;3.87;;;0.90;;
3949;SDS011;53057;50.988;6.314;2023-03-14T00:29:05;8.13;;;1.33;;
3949;SDS011;53057;50.988;6.314;2023-03-14T00:31:32;4.33;;;0.83;;
3949;SDS011;53057;50.988;6.314;2023-03-14T00:33:59;5.40;;;1.17;;
3949;SDS011;53057;50.988;6.314;2023-03-14T00:36:25;1.50;;;1.40;;
3949;SDS011;53057;50.988;6.314;2023-03-14T00:38:52;4.80;;;1.40;;
3949;SDS011;53057;50.988;6.314;2023-03-14T00:41:20;5.80;;;1.40;;
3949;SDS011;53057;50.988;6.314;2023-03-14T00:43:49;9.77;;;1.40;;
3949;SDS011;53057;50.988;6.314;2023-03-14T00:46:16;6.20;;;1.33;;
3949;SDS011;53057;50.988;6.314;2023-03-14T00:48:46;5.63;;;1.20;;
3949;SDS011;53057;50.988;6.314;2023-03-14T00:51:13;5.63;;;1.17;;
3949;SDS011;53057;50.988;6.314;2023-03-14T00:53:43;8.37;;;1.27;;
3949;SDS011;53057;50.988;6.314;2023-03-14T00:56:10;5.77;;;1.77;;
3949;SDS011;53057;50.988;6.314;2023-03-14T00:58:37;5.57;;;1.13;;
3949;SDS011;53057;50.988;6.314;2023-03-14T01:03:34;8.53;;;1.93;;
3949;SDS011;53057;50.988;6.314;2023-03-14T01:06:13;11.80;;;1.80;;
3949;SDS011;53057;50.988;6.314;2023-03-14T01:08:42;5.57;;;2.10;;
3949;SDS011;53057;50.988;6.314;2023-03-14T01:11:10;6.53;;;1.97;;
3949;SDS011;53057;50.988;6.314;2023-03-14T01:13:36;5.03;;;1.60;;
3949;SDS011;53057;50.988;6.314;2023-03-14T01:16:04;7.70;;;1.97;;
3949;SDS011;53057;50.988;6.314;2023-03-14T01:18:33;5.60;;;1.40;;
3949;SDS011;53057;50.988;6.314;2023-03-14T01:21:02;15.13;;;2.83;;
3949;SDS011;53057;50.988;6.314;2023-03-14T01:23:28;6.93;;;1.20;;
3949;SDS011;53057;50.988;6.314;2023-03-14T01:25:55;8.13;;;1.23;;
3949;SDS011;53057;50.988;6.314;2023-03-14T01:28:21;9.87;;;1.70;;
3949;SDS011;53057;50.988;6.314;2023-03-14T01:30:48;8.73;;;2.07;;
3949;SDS011;53057;50.988;6.314;2023-03-14T01:33:15;5.57;;;1.73;;
3949;SDS011;53057;50.988;6.314;2023-03-14T01:35:43;4.23;;;1.47;;
3949;SDS011;53057;50.988;6.314;2023-03-14T01:38:10;3.10;;;2.20;;
3949;SDS011;53057;50.988;6.314;2023-03-14T01:40:44;8.30;;;2.03;;
3949;SDS011;53057;50.988;6.314;2023-03-14T01:43:18;4.50;;;1.57;;
3949;SDS011;53057;50.988;6.314;2023-03-14T01:48:21;2.63;;;1.00;;
3949;SDS011;53057;50.988;6.314;2023-03-14T01:50:47;4.10;;;1.57;;
3949;SDS011;53057;50.988;6.314;2023-03-14T01:53:15;5.63;;;2.20;;
3949;SDS011;53057;50.988;6.314;2023-03-14T01:55:41;3.00;;;1.20;;
3949;SDS011;53057;50.988;6.314;2023-03-14T01:58:08;7.97;;;1.87;;
3949;SDS011;53057;50.988;6.314;2023-03-14T02:00:35;3.50;;;1.20;;
3949;SDS011;53057;50.988;6.314;2023-03-14T02:03:05;14.00;;;1.90;;
3949;SDS011;53057;50.988;6.314;2023-03-14T02:05:34;9.23;;;2.00;;
3949;SDS011;53057;50.988;6.314;2023-03-14T02:08:11;7.83;;;1.23;;
3949;SDS011;53057;50.988;6.314;2023-03-14T02:10:44;4.93;;;1.10;;
3949;SDS011;53057;50.988;6.314;2023-03-14T02:13:12;6.23;;;1.13;;
3949;SDS011;53057;50.988;6.314;2023-03-14T02:15:59;4.03;;;2.40;;
3949;SDS011;53057;50.988;6.314;2023-03-14T02:18:52;3.47;;;1.60;;
3949;SDS011;53057;50.988;6.314;2023-03-14T02:27:08;4.50;;;1.40;;
3949;SDS011;53057;50.988;6.314;2023-03-14T02:30:23;3.33;;;1.43;;
3949;SDS011;53057;50.988;6.314;2023-03-14T02:32:31;4.63;;;1.47;;
3949;SDS011;53057;50.988;6.314;2023-03-14T02:34:59;2.50;;;1.00;;
3949;SDS011;53057;50.988;6.314;2023-03-14T02:37:28;2.47;;;1.00;;
3949;SDS011;53057;50.988;6.314;2023-03-14T02:39:57;5.13;;;1.30;;
3949;SDS011;53057;50.988;6.314;2023-03-14T02:42:24;1.27;;;1.10;;
3949;SDS011;53057;50.988;6.314;2023-03-14T02:44:53;4.70;;;1.30;;
3949;SDS011;53057;50.988;6.314;2023-03-14T02:47:22;5.07;;;2.33;;
3949;SDS011;53057;50.988;6.314;2023-03-14T02:49:50;9.07;;;2.70;;
3949;SDS011;53057;50.988;6.314;2023-03-14T02:52:17;6.83;;;1.50;;
3949;SDS011;53057;50.988;6.314;2023-03-14T02:54:44;11.33;;;2.70;;
3949;SDS011;53057;50.988;6.314;2023-03-14T02:57:10;19.47;;;3.57;;
3949;SDS011;53057;50.988;6.314;2023-03-14T02:59:37;10.93;;;3.00;;
3949;SDS011;53057;50.988;6.314;2023-03-14T03:02:11;19.73;;;2.53;;
3949;SDS011;53057;50.988;6.314;2023-03-14T03:04:37;11.83;;;3.50;;
3949;SDS011;53057;50.988;6.314;2023-03-14T03:07:04;14.40;;;3.80;;
3949;SDS011;53057;50.988;6.314;2023-03-14T03:09:30;14.93;;;3.30;;
3949;SDS011;53057;50.988;6.314;2023-03-14T03:11:57;15.20;;;2.97;;
3949;SDS011;53057;50.988;6.314;2023-03-14T03:14:26;21.47;;;4.40;;
3949;SDS011;53057;50.988;6.314;2023-03-14T03:16:55;5.63;;;2.40;;
3949;SDS011;53057;50.988;6.314;2023-03-14T03:19:22;7.80;;;1.77;;
3949;SDS011;53057;50.988;6.314;2023-03-14T03:21:48;8.43;;;2.07;;
3949;SDS011;53057;50.988;6.314;2023-03-14T03:24:15;8.30;;;2.07;;
3949;SDS011;53057;50.988;6.314;2023-03-14T03:26:41;11.97;;;1.00;;
3949;SDS011;53057;50.988;6.314;2023-03-14T03:29:09;10.67;;;1.57;;
3949;SDS011;53057;50.988;6.314;2023-03-14T03:31:37;11.83;;;2.10;;
3949;SDS011;53057;50.988;6.314;2023-03-14T03:34:03;15.07;;;1.87;;
3949;SDS011;53057;50.988;6.314;2023-03-14T03:36:30;5.70;;;1.40;;
3949;SDS011;53057;50.988;6.314;2023-03-14T03:38:58;5.83;;;1.97;;
3949;SDS011;53057;50.988;6.314;2023-03-14T03:41:25;5.27;;;2.27;;
3949;SDS011;53057;50.988;6.314;2023-03-14T03:43:51;3.67;;;0.80;;
3949;SDS011;53057;50.988;6.314;2023-03-14T03:46:19;8.63;;;2.30;;
3949;SDS011;53057;50.988;6.314;2023-03-14T03:48:45;2.90;;;1.73;;
3949;SDS011;53057;50.988;6.314;2023-03-14T03:51:13;10.70;;;1.77;;
3949;SDS011;53057;50.988;6.314;2023-03-14T03:53:40;5.17;;;0.93;;
3949;SDS011;53057;50.988;6.314;2023-03-14T03:56:10;9.10;;;1.97;;
3949;SDS011;53057;50.988;6.314;2023-03-14T03:58:37;3.03;;;0.90;;
3949;SDS011;53057;50.988;6.314;2023-03-14T04:01:06;6.50;;;1.43;;
3949;SDS011;53057;50.988;6.314;2023-03-14T04:03:33;3.77;;;1.13;;
3949;SDS011;53057;50.988;6.314;2023-03-14T04:06:02;5.33;;;1.20;;
3949;SDS011;53057;50.988;6.314;2023-03-14T04:08:31;2.53;;;0.80;;
3949;SDS011;53057;50.988;6.314;2023-03-14T04:10:58;1.73;;;1.00;;
3949;SDS011;53057;50.988;6.314;2023-03-14T04:13:44;7.30;;;1.23;;
3949;SDS011;53057;50.988;6.314;2023-03-14T04:16:15;5.67;;;1.37;;
3949;SDS011;53057;50.988;6.314;2023-03-14T04:18:48;0.90;;;0.80;;
3949;SDS011;53057;50.988;6.314;2023-03-14T04:21:18;1.90;;;1.03;;
3949;SDS011;53057;50.988;6.314;2023-03-14T04:23:48;1.43;;;0.57;;
3949;SDS011;53057;50.988;6.314;2023-03-14T04:26:15;0.70;;;0.53;;
3949;SDS011;53057;50.988;6.314;2023-03-14T04:28:42;1.17;;;0.63;;
3949;SDS011;53057;50.988;6.314;2023-03-14T04:31:10;0.70;;;0.70;;
3949;SDS011;53057;50.988;6.314;2023-03-14T04:33:38;2.40;;;0.87;;
3949;SDS011;53057;50.988;6.314;2023-03-14T04:36:05;0.97;;;0.70;;
3949;SDS011;53057;50.988;6.314;2023-03-14T04:38:33;1.13;;;0.83;;
3949;SDS011;53057;50.988;6.314;2023-03-14T04:40:59;0.93;;;0.60;;
3949;SDS011;53057;50.988;6.314;2023-03-14T04:43:30;1.37;;;0.60;;
3949;SDS011;53057;50.988;6.314;2023-03-14T04:46:06;0.60;;;0.50;;
3949;SDS011;53057;50.988;6.314;2023-03-14T04:48:33;0.70;;;0.60;;
3949;SDS011;53057;50.988;6.314;2023-03-14T04:51:00;0.60;;;0.50;;
3949;SDS011;53057;50.988;6.314;2023-03-14T04:53:30;3.53;;;0.60;;
3949;SDS011;53057;50.988;6.314;2023-03-14T04:55:59;1.20;;;0.60;;
3949;SDS011;53057;50.988;6.314;2023-03-14T04:58:33;0.60;;;0.50;;
3949;SDS011;53057;50.988;6.314;2023-03-14T05:01:01;1.07;;;0.60;;
3949;SDS011;53057;50.988;6.314;2023-03-14T05:03:46;0.93;;;0.57;;
3949;SDS011;53057;50.988;6.314;2023-03-14T05:06:20;0.60;;;0.60;;
3949;SDS011;53057;50.988;6.314;2023-03-14T05:09:05;0.60;;;0.60;;
3949;SDS011;53057;50.988;6.314;2023-03-14T05:11:50;0.50;;;0.50;;
3949;SDS011;53057;50.988;6.314;2023-03-14T05:14:35;0.50;;;0.47;;
3949;SDS011;53057;50.988;6.314;2023-03-14T05:17:16;0.60;;;0.60;;
3949;SDS011;53057;50.988;6.314;2023-03-14T05:20:03;2.10;;;0.60;;
3949;SDS011;53057;50.988;6.314;2023-03-14T05:22:53;0.73;;;0.50;;
3949;SDS011;53057;50.988;6.314;2023-03-14T05:25:42;5.50;;;0.50;;
3949;SDS011;53057;50.988;6.314;2023-03-14T05:28:27;0.50;;;0.50;;
3949;SDS011;53057;50.988;6.314;2023-03-14T05:31:17;0.63;;;0.47;;
3949;SDS011;53057;50.988;6.314;2023-03-14T05:33:54;0.67;;;0.50;;
3949;SDS011;53057;50.988;6.314;2023-03-14T05:36:35;1.70;;;0.50;;
3949;SDS011;53057;50.988;6.314;2023-03-14T05:39:25;1.33;;;0.50;;
3949;SDS011;53057;50.988;6.314;2023-03-14T05:42:30;0.60;;;0.50;;
3949;SDS011;53057;50.988;6.314;2023-03-14T05:45:18;0.90;;;0.50;;
3949;SDS011;53057;50.988;6.314;2023-03-14T05:48:02;2.93;;;0.50;;
3949;SDS011;53057;50.988;6.314;2023-03-14T05:51:03;0.60;;;0.50;;
3949;SDS011;53057;50.988;6.314;2023-03-14T05:53:45;0.50;;;0.50;;
3949;SDS011;53057;50.988;6.314;2023-03-14T05:56:30;0.80;;;0.60;;
3949;SDS011;53057;50.988;6.314;2023-03-14T05:59:06;0.70;;;0.50;;
3949;SDS011;53057;50.988;6.314;2023-03-14T06:01:50;0.57;;;0.50;;
3949;SDS011;53057;50.988;6.314;2023-03-14T06:04:21;0.70;;;0.50;;
3949;SDS011;53057;50.988;6.314;2023-03-14T06:06:53;0.50;;;0.40;;
3949;SDS011;53057;50.988;6.314;2023-03-14T06:09:20;0.50;;;0.43;;
3949;SDS011;53057;50.988;6.314;2023-03-14T06:11:51;0.60;;;0.50;;
3949;SDS011;53057;50.988;6.314;2023-03-14T06:14:18;0.50;;;0.50;;
3949;SDS011;53057;50.988;6.314;2023-03-14T06:16:46;0.50;;;0.40;;
3949;SDS011;53057;50.988;6.314;2023-03-14T06:19:17;0.80;;;0.50;;
3949;SDS011;53057;50.988;6.314;2023-03-14T06:21:44;0.60;;;0.50;;
3949;SDS011;53057;50.988;6.314;2023-03-14T06:24:11;0.50;;;0.50;;
3949;SDS011;53057;50.988;6.314;2023-03-14T06:26:43;1.67;;;0.60;;
3949;SDS011;53057;50.988;6.314;2023-03-14T06:29:09;0.90;;;0.50;;
3949;SDS011;53057;50.988;6.314;2023-03-14T06:31:37;1.30;;;0.67;;
3949;SDS011;53057;50.988;6.314;2023-03-14T06:34:06;1.10;;;0.97;;
3949;SDS011;53057;50.988;6.314;2023-03-14T06:36:33;0.70;;;0.60;;
3949;SDS011;53057;50.988;6.314;2023-03-14T06:38:59;0.60;;;0.50;;
3949;SDS011;53057;50.988;6.314;2023-03-14T06:41:28;0.60;;;0.50;;
3949;SDS011;53057;50.988;6.314;2023-03-14T06:43:56;0.60;;;0.50;;
3949;SDS011;53057;50.988;6.314;2023-03-14T06:46:23;0.60;;;0.50;;
3949;SDS011;53057;50.988;6.314;2023-03-14T06:48:51;0.50;;;0.50;;
3949;SDS011;53057;50.988;6.314;2023-03-14T06:51:18;0.60;;;0.50;;
3949;SDS011;53057;50.988;6.314;2023-03-14T06:53:46;0.70;;;0.60;;
3949;SDS011;53057;50.988;6.314;2023-03-14T06:56:15;0.87;;;0.60;;
3949;SDS011;53057;50.988;6.314;2023-03-14T06:58:41;0.60;;;0.50;;
3949;SDS011;53057;50.988;6.314;2023-03-14T07:01:21;2.63;;;0.70;;
3949;SDS011;53057;50.988;6.314;2023-03-14T07:03:49;0.60;;;0.60;;
3949;SDS011;53057;50.988;6.314;2023-03-14T07:06:16;2.70;;;0.67;;
3949;SDS011;53057;50.988;6.314;2023-03-14T07:08:42;0.60;;;0.60;;
3949;SDS011;53057;50.988;6.314;2023-03-14T07:11:09;0.80;;;0.60;;
3949;SDS011;53057;50.988;6.314;2023-03-14T07:13:40;0.63;;;0.60;;
3949;SDS011;53057;50.988;6.314;2023-03-14T07:16:07;0.70;;;0.70;;
3949;SDS011;53057;50.988;6.314;2023-03-14T07:18:35;1.37;;;0.60;;
3949;SDS011;53057;50.988;6.314;2023-03-14T07:21:05;1.00;;;0.60;;
3949;SDS011;53057;50.988;6.314;2023-03-14T07:23:33;0.60;;;0.60;;
3949;SDS011;53057;50.988;6.314;2023-03-14T07:26:00;1.27;;;0.80;;
3949;SDS011;53057;50.988;6.314;2023-03-14T07:28:27;1.47;;;0.97;;
3949;SDS011;53057;50.988;6.314;2023-03-14T07:30:59;1.47;;;0.67;;
3949;SDS011;53057;50.988;6.314;2023-03-14T07:33:30;1.13;;;0.73;;
3949;SDS011;53057;50.988;6.314;2023-03-14T07:35:57;0.63;;;0.63;;
3949;SDS011;53057;50.988;6.314;2023-03-14T07:38:24;7.30;;;0.90;;
3949;SDS011;53057;50.988;6.314;2023-03-14T07:41:14;1.63;;;0.60;;
3949;SDS011;53057;50.988;6.314;2023-03-14T07:43:48;1.00;;;0.83;;
3949;SDS011;53057;50.988;6.314;2023-03-14T07:46:15;0.67;;;0.67;;
3949;SDS011;53057;50.988;6.314;2023-03-14T07:48:42;0.60;;;0.60;;
3949;SDS011;53057;50.988;6.314;2023-03-14T07:51:08;2.50;;;0.70;;
3949;SDS011;53057;50.988;6.314;2023-03-14T07:53:35;2.33;;;0.90;;
3949;SDS011;53057;50.988;6.314;2023-03-14T07:56:02;3.03;;;0.60;;
3949;SDS011;53057;50.988;6.314;2023-03-14T07:58:28;2.93;;;0.80;;
3949;SDS011;53057;50.988;6.314;2023-03-14T08:00:55;3.53;;;1.00;;
3949;SDS011;53057;50.988;6.314;2023-03-14T08:03:24;7.70;;;0.80;;
3949;SDS011;53057;50.988;6.314;2023-03-14T08:05:51;0.80;;;0.80;;
3949;SDS011;53057;50.988;6.314;2023-03-14T08:08:17;1.00;;;0.70;;
3949;SDS011;53057;50.988;6.314;2023-03-14T08:10:44;1.77;;;1.00;;
3949;SDS011;53057;50.988;6.314;2023-03-14T08:13:12;1.27;;;0.70;;
3949;SDS011;53057;50.988;6.314;2023-03-14T08:15:39;1.30;;;0.97;;
3949;SDS011;53057;50.988;6.314;2023-03-14T08:18:05;1.10;;;1.00;;
3949;SDS011;53057;50.988;6.314;2023-03-14T08:20:32;2.33;;;0.77;;
3949;SDS011;53057;50.988;6.314;2023-03-14T08:22:59;0.97;;;0.80;;
3949;SDS011;53057;50.988;6.314;2023-03-14T08:25:26;1.83;;;0.80;;
3949;SDS011;53057;50.988;6.314;2023-03-14T08:27:53;1.30;;;1.10;;
3949;SDS011;53057;50.988;6.314;2023-03-14T08:30:20;1.57;;;1.10;;
3949;SDS011;53057;50.988;6.314;2023-03-14T08:32:47;0.80;;;0.80;;
3949;SDS011;53057;50.988;6.314;2023-03-14T08:35:14;2.50;;;2.30;;
3949;SDS011;53057;50.988;6.314;2023-03-14T08:37:41;0.90;;;0.90;;
3949;SDS011;53057;50.988;6.314;2023-03-14T08:40:08;0.60;;;0.60;;
3949;SDS011;53057;50.988;6.314;2023-03-14T08:42:36;2.57;;;1.17;;
3949;SDS011;53057;50.988;6.314;2023-03-14T08:45:03;0.97;;;0.87;;
3949;SDS011;53057;50.988;6.314;2023-03-14T08:47:30;1.17;;;0.80;;
3949;SDS011;53057;50.988;6.314;2023-03-14T08:49:57;3.70;;;0.97;;
3949;SDS011;53057;50.988;6.314;2023-03-14T08:52:23;2.03;;;0.70;;
3949;SDS011;53057;50.988;6.314;2023-03-14T08:54:50;1.43;;;1.00;;
3949;SDS011;53057;50.988;6.314;2023-03-14T08:57:17;4.93;;;0.90;;
3949;SDS011;53057;50.988;6.314;2023-03-14T08:59:43;1.63;;;0.70;;
3949;SDS011;53057;50.988;6.314;2023-03-14T09:02:13;1.17;;;1.07;;
3949;SDS011;53057;50.988;6.314;2023-03-14T09:04:39;1.53;;;1.00;;
3949;SDS011;53057;50.988;6.314;2023-03-14T09:07:06;1.27;;;1.17;;
3949;SDS011;53057;50.988;6.314;2023-03-14T09:09:33;1.40;;;0.83;;
3949;SDS011;53057;50.988;6.314;2023-03-14T09:11:59;0.97;;;0.97;;
3949;SDS011;53057;50.988;6.314;2023-03-14T09:14:26;0.83;;;0.83;;
3949;SDS011;53057;50.988;6.314;2023-03-14T09:16:52;0.80;;;0.80;;
3949;SDS011;53057;50.988;6.314;2023-03-14T09:19:20;4.77;;;1.00;;
3949;SDS011;53057;50.988;6.314;2023-03-14T09:21:46;1.33;;;0.80;;
3949;SDS011;53057;50.988;6.314;2023-03-14T09:24:13;3.40;;;0.90;;
3949;SDS011;53057;50.988;6.314;2023-03-14T09:26:39;2.20;;;1.33;;
3949;SDS011;53057;50.988;6.314;2023-03-14T09:29:06;1.10;;;1.00;;
3949;SDS011;53057;50.988;6.314;2023-03-14T09:31:33;1.23;;;0.93;;
3949;SDS011;53057;50.988;6.314;2023-03-14T09:33:59;1.20;;;1.10;;
3949;SDS011;53057;50.988;6.314;2023-03-14T09:36:26;1.13;;;1.03;;
3949;SDS011;53057;50.988;6.314;2023-03-14T09:38:53;1.93;;;1.23;;
3949;SDS011;53057;50.988;6.314;2023-03-14T09:41:29;1.30;;;1.20;;
3949;SDS011;53057;50.988;6.314;2023-03-14T09:44:05;2.40;;;1.80;;
3949;SDS011;53057;50.988;6.314;2023-03-14T09:46:33;1.33;;;1.20;;
3949;SDS011;53057;50.988;6.314;2023-03-14T09:49:01;2.13;;;1.27;;
3949;SDS011;53057;50.988;6.314;2023-03-14T09:51:28;3.17;;;2.87;;
3949;SDS011;53057;50.988;6.314;2023-03-14T09:53:55;1.40;;;1.30;;
3949;SDS011;53057;50.988;6.314;2023-03-14T09:56:25;2.17;;;1.97;;
3949;SDS011;53057;50.988;6.314;2023-03-14T09:59:00;7.40;;;2.63;;
3949;SDS011;53057;50.988;6.314;2023-03-14T10:01:28;3.50;;;3.20;;
3949;SDS011;53057;50.988;6.314;2023-03-14T10:04:00;7.50;;;2.57;;
3949;SDS011;53057;50.988;6.314;2023-03-14T10:06:28;5.00;;;1.90;;
3949;SDS011;53057;50.988;6.314;2023-03-14T10:08:55;3.40;;;1.70;;
3949;SDS011;53057;50.988;6.314;2023-03-14T10:11:23;7.00;;;1.27;;
3949;SDS011;53057;50.988;6.314;2023-03-14T10:14:01;6.83;;;1.27;;
3949;SDS011;53057;50.988;6.314;2023-03-14T10:16:30;1.80;;;1.70;;
3949;SDS011;53057;50.988;6.314;2023-03-14T10:19:02;1.80;;;1.70;;
3949;SDS011;53057;50.988;6.314;2023-03-14T10:21:30;2.30;;;1.50;;
3949;SDS011;53057;50.988;6.314;2023-03-14T10:26:35;4.63;;;1.40;;
3949;SDS011;53057;50.988;6.314;2023-03-14T10:29:12;15.23;;;1.77;;
3949;SDS011;53057;50.988;6.314;2023-03-14T10:31:46;2.63;;;1.87;;
3949;SDS011;53057;50.988;6.314;2023-03-14T10:34:15;3.53;;;1.30;;
3949;SDS011;53057;50.988;6.314;2023-03-14T10:36:42;6.50;;;1.70;;
3949;SDS011;53057;50.988;6.314;2023-03-14T10:39:21;2.70;;;1.00;;
3949;SDS011;53057;50.988;6.314;2023-03-14T10:41:48;1.07;;;0.90;;
3949;SDS011;53057;50.988;6.314;2023-03-14T10:44:17;1.93;;;1.37;;
3949;SDS011;53057;50.988;6.314;2023-03-14T10:46:45;6.97;;;1.47;;
3949;SDS011;53057;50.988;6.314;2023-03-14T10:49:27;3.70;;;1.57;;
3949;SDS011;53057;50.988;6.314;2023-03-14T10:51:54;7.07;;;1.87;;
3949;SDS011;53057;50.988;6.314;2023-03-14T10:54:22;5.60;;;1.77;;
3949;SDS011;53057;50.988;6.314;2023-03-14T10:57:00;1.30;;;1.20;;
3949;SDS011;53057;50.988;6.314;2023-03-14T10:59:36;7.20;;;1.90;;
3949;SDS011;53057;50.988;6.314;2023-03-14T11:04:57;2.40;;;1.40;;
3949;SDS011;53057;50.988;6.314;2023-03-14T11:10:02;2.73;;;2.27;;
3949;SDS011;53057;50.988;6.314;2023-03-14T11:15:15;2.87;;;2.40;;
3949;SDS011;53057;50.988;6.314;2023-03-14T11:22:58;1.00;;;0.77;;
3949;SDS011;53057;50.988;6.314;2023-03-14T11:25:33;4.00;;;0.70;;
3949;SDS011;53057;50.988;6.314;2023-03-14T11:28:09;1.30;;;1.20;;
3949;SDS011;53057;50.988;6.314;2023-03-14T11:30:42;4.10;;;0.70;;
3949;SDS011;53057;50.988;6.314;2023-03-14T11:40:58;2.20;;;1.73;;
3949;SDS011;53057;50.988;6.314;2023-03-14T11:43:38;1.63;;;1.20;;
3949;SDS011;53057;50.988;6.314;2023-03-14T11:46:14;1.30;;;1.20;;
3949;SDS011;53057;50.988;6.314;2023-03-14T11:51:12;2.80;;;0.90;;
3949;SDS011;53057;50.988;6.314;2023-03-14T11:56:14;2.30;;;1.20;;
3949;SDS011;53057;50.988;6.314;2023-03-14T11:58:45;1.00;;;0.90;;
3949;SDS011;53057;50.988;6.314;2023-03-14T12:01:14;3.70;;;1.20;;
3949;SDS011;53057;50.988;6.314;2023-03-14T12:03:55;2.73;;;1.77;;
3949;SDS011;53057;50.988;6.314;2023-03-14T12:06:26;7.80;;;1.53;;
3949;SDS011;53057;50.988;6.314;2023-03-14T12:08:55;6.83;;;2.93;;
3949;SDS011;53057;50.988;6.314;2023-03-14T12:13:53;9.73;;;2.03;;
3949;SDS011;53057;50.988;6.314;2023-03-14T12:18:50;4.10;;;1.10;;
3949;SDS011;53057;50.988;6.314;2023-03-14T12:21:17;5.87;;;1.40;;
3949;SDS011;53057;50.988;6.314;2023-03-14T12:23:54;4.07;;;1.37;;
3949;SDS011;53057;50.988;6.314;2023-03-14T12:26:25;8.87;;;1.83;;
3949;SDS011;53057;50.988;6.314;2023-03-14T12:31:36;7.40;;;3.27;;
3949;SDS011;53057;50.988;6.314;2023-03-14T12:44:50;8.93;;;2.30;;
3949;SDS011;53057;50.988;6.314;2023-03-14T12:49:44;12.10;;;2.80;;
3949;SDS011;53057;50.988;6.314;2023-03-14T12:52:15;6.67;;;1.93;;
3949;SDS011;53057;50.988;6.314;2023-03-14T12:57:24;6.57;;;3.10;;
3949;SDS011;53057;50.988;6.314;2023-03-14T12:59:54;7.37;;;2.40;;
3949;SDS011;53057;50.988;6.314;2023-03-14T13:02:23;15.17;;;2.33;;
3949;SDS011;53057;50.988;6.314;2023-03-14T13:10:23;13.83;;;3.27;;
3949;SDS011;53057;50.988;6.314;2023-03-14T13:15:30;4.93;;;1.40;;
3949;SDS011;53057;50.988;6.314;2023-03-14T13:17:59;8.20;;;2.43;;
3949;SDS011;53057;50.988;6.314;2023-03-14T13:20:31;18.00;;;1.97;;
3949;SDS011;53057;50.988;6.314;2023-03-14T13:22:58;10.13;;;1.83;;
3949;SDS011;53057;50.988;6.314;2023-03-14T13:25:28;19.40;;;2.37;;
3949;SDS011;53057;50.988;6.314;2023-03-14T13:27:55;21.03;;;3.40;;
3949;SDS011;53057;50.988;6.314;2023-03-14T13:30:23;20.73;;;5.37;;
3949;SDS011;53057;50.988;6.314;2023-03-14T13:32:51;19.40;;;3.67;;
3949;SDS011;53057;50.988;6.314;2023-03-14T13:37:52;24.97;;;3.00;;
3949;SDS011;53057;50.988;6.314;2023-03-14T13:40:35;22.50;;;3.97;;
3949;SDS011;53057;50.988;6.314;2023-03-14T13:43:10;16.00;;;3.50;;
3949;SDS011;53057;50.988;6.314;2023-03-14T13:46:13;22.37;;;4.37;;
3949;SDS011;53057;50.988;6.314;2023-03-14T13:48:33;37.33;;;5.10;;
3949;SDS011;53057;50.988;6.314;2023-03-14T13:51:02;20.57;;;3.93;;
3949;SDS011;53057;50.988;6.314;2023-03-14T13:53:29;31.30;;;5.87;;
3949;SDS011;53057;50.988;6.314;2023-03-14T13:55:56;31.43;;;4.20;;
3949;SDS011;53057;50.988;6.314;2023-03-14T13:58:24;22.07;;;4.70;;
3949;SDS011;53057;50.988;6.314;2023-03-14T14:00:55;16.73;;;4.07;;
3949;SDS011;53057;50.988;6.314;2023-03-14T14:03:22;11.10;;;3.17;;
3949;SDS011;53057;50.988;6.314;2023-03-14T14:05:49;21.30;;;3.67;;
3949;SDS011;53057;50.988;6.314;2023-03-14T14:08:15;20.17;;;6.53;;
3949;SDS011;53057;50.988;6.314;2023-03-14T14:10:42;22.50;;;3.60;;
3949;SDS011;53057;50.988;6.314;2023-03-14T14:13:10;16.80;;;4.17;;
3949;SDS011;53057;50.988;6.314;2023-03-14T14:15:43;17.37;;;5.30;;
3949;SDS011;53057;50.988;6.314;2023-03-14T14:18:12;22.80;;;4.80;;
3949;SDS011;53057;50.988;6.314;2023-03-14T14:20:45;27.07;;;5.83;;
3949;SDS011;53057;50.988;6.314;2023-03-14T14:23:24;16.47;;;4.00;;
3949;SDS011;53057;50.988;6.314;2023-03-14T14:25:52;11.67;;;4.40;;
3949;SDS011;53057;50.988;6.314;2023-03-14T14:28:32;24.40;;;4.73;;
3949;SDS011;53057;50.988;6.314;2023-03-14T14:33:45;11.93;;;2.50;;
3949;SDS011;53057;50.988;6.314;2023-03-14T14:36:22;22.07;;;4.23;;
3949;SDS011;53057;50.988;6.314;2023-03-14T14:38:50;14.97;;;3.23;;
3949;SDS011;53057;50.988;6.314;2023-03-14T14:41:17;26.13;;;5.00;;
3949;SDS011;53057;50.988;6.314;2023-03-14T14:43:45;20.60;;;4.57;;
3949;SDS011;53057;50.988;6.314;2023-03-14T14:46:16;13.90;;;4.00;;
3949;SDS011;53057;50.988;6.314;2023-03-14T14:48:43;25.97;;;4.93;;
3949;SDS011;53057;50.988;6.314;2023-03-14T14:51:11;22.53;;;4.03;;
3949;SDS011;53057;50.988;6.314;2023-03-14T14:53:48;31.43;;;5.60;;
3949;SDS011;53057;50.988;6.314;2023-03-14T14:58:46;23.30;;;4.93;;
3949;SDS011;53057;50.988;6.314;2023-03-14T15:01:20;24.33;;;6.50;;
3949;SDS011;53057;50.988;6.314;2023-03-14T15:03:50;30.37;;;4.67;;
3949;SDS011;53057;50.988;6.314;2023-03-14T15:06:18;27.37;;;7.00;;
3949;SDS011;53057;50.988;6.314;2023-03-14T15:08:48;27.63;;;4.50;;
3949;SDS011;53057;50.988;6.314;2023-03-14T15:11:21;22.70;;;4.47;;
3949;SDS011;53057;50.988;6.314;2023-03-14T15:13:49;15.13;;;4.13;;
3949;SDS011;53057;50.988;6.314;2023-03-14T15:16:17;18.37;;;3.23;;
3949;SDS011;53057;50.988;6.314;2023-03-14T15:18:44;24.97;;;4.23;;
3949;SDS011;53057;50.988;6.314;2023-03-14T15:21:12;24.67;;;5.87;;
3949;SDS011;53057;50.988;6.314;2023-03-14T15:23:39;7.60;;;2.53;;
3949;SDS011;53057;50.988;6.314;2023-03-14T15:26:11;31.60;;;4.87;;
3949;SDS011;53057;50.988;6.314;2023-03-14T15:28:39;26.30;;;4.80;;
3949;SDS011;53057;50.988;6.314;2023-03-14T15:31:10;17.40;;;4.97;;
3949;SDS011;53057;50.988;6.314;2023-03-14T15:33:37;24.63;;;5.00;;
3949;SDS011;53057;50.988;6.314;2023-03-14T15:36:04;17.10;;;4.50;;
3949;SDS011;53057;50.988;6.314;2023-03-14T15:38:31;29.90;;;4.50;;
3949;SDS011;53057;50.988;6.314;2023-03-14T15:40:57;23.73;;;3.83;;
3949;SDS011;53057;50.988;6.314;2023-03-14T15:43:24;17.50;;;5.63;;
3949;SDS011;53057;50.988;6.314;2023-03-14T15:45:51;24.53;;;4.90;;
3949;SDS011;53057;50.988;6.314;2023-03-14T15:48:20;29.83;;;5.80;;
3949;SDS011;53057;50.988;6.314;2023-03-14T15:50:47;17.33;;;3.70;;
3949;SDS011;53057;50.988;6.314;2023-03-14T15:53:13;12.53;;;2.73;;
3949;SDS011;53057;50.988;6.314;2023-03-14T15:55:40;23.17;;;3.90;;
3949;SDS011;53057;50.988;6.314;2023-03-14T15:58:09;7.03;;;2.30;;
3949;SDS011;53057;50.988;6.314;2023-03-14T16:00:41;13.10;;;1.90;;
3949;SDS011;53057;50.988;6.314;2023-03-14T16:03:07;14.77;;;3.67;;
3949;SDS011;53057;50.988;6.314;2023-03-14T16:05:34;14.50;;;2.03;;
3949;SDS011;53057;50.988;6.314;2023-03-14T16:08:01;13.67;;;4.17;;
3949;SDS011;53057;50.988;6.314;2023-03-14T16:10:29;5.97;;;2.10;;
3949;SDS011;53057;50.988;6.314;2023-03-14T16:12:56;11.53;;;2.77;;
3949;SDS011;53057;50.988;6.314;2023-03-14T16:15:23;6.47;;;2.33;;
3949;SDS011;53057;50.988;6.314;2023-03-14T16:17:53;6.40;;;2.00;;
3949;SDS011;53057;50.988;6.314;2023-03-14T16:20:20;7.57;;;2.13;;
3949;SDS011;53057;50.988;6.314;2023-03-14T16:22:47;10.00;;;2.13;;
3949;SDS011;53057;50.988;6.314;2023-03-14T16:25:13;13.37;;;1.83;;
3949;SDS011;53057;50.988;6.314;2023-03-14T16:27:40;8.07;;;1.80;;
3949;SDS011;53057;50.988;6.314;2023-03-14T16:30:10;19.70;;;3.90;;
3949;SDS011;53057;50.988;6.314;2023-03-14T16:32:37;15.00;;;3.23;;
3949;SDS011;53057;50.988;6.314;2023-03-14T16:35:03;25.17;;;3.13;;